Time;durP1;ratioP1;P1;durP2;ratioP2;P2;SDS_P1;SDS_P2;PMS_P1;PMS_P2;Temp;Humidity;BMP_temperature;BMP_pressure;BME280_temperature;BME280_humidity;BME280_pressure;Samples;Min_cycle;Max_cycle;Signal;HPM_P1;HPM_P2
2023/09/04 03:12:55;;;;;;;8.17;7.77;;;18.90;36.70;;;;;;5211964;23;20967;-76
2023/09/04 03:15:20;;;;;;;8.80;8.30;;;18.90;36.70;;;;;;4988349;28;20458;-76
2023/09/04 03:17:46;;;;;;;9.13;8.50;;;19.00;36.70;;;;;;4983348;28;20564;-77
2023/09/04 03:20:12;;;;;;;8.90;8.40;;;18.90;36.50;;;;;;4971888;28;20225;-76
2023/09/04 03:22:37;;;;;;;9.20;8.70;;;19.00;36.40;;;;;;4976642;28;20189;-76
2023/09/04 03:25:03;;;;;;;8.37;7.97;;;18.90;36.30;;;;;;4994446;28;20406;-77
2023/09/04 03:27:29;;;;;;;8.33;7.93;;;18.90;36.20;;;;;;4976304;28;20222;-77
2023/09/04 03:29:54;;;;;;;8.80;8.40;;;18.90;36.20;;;;;;4974560;28;20170;-76
2023/09/04 03:32:20;;;;;;;8.07;7.67;;;18.90;36.10;;;;;;4994436;28;20360;-77
2023/09/04 03:34:45;;;;;;;8.93;8.20;;;19.00;36.20;;;;;;4973592;28;20762;-77
2023/09/04 03:37:11;;;;;;;8.40;7.90;;;18.90;35.90;;;;;;4994686;28;20201;-77
2023/09/04 03:39:37;;;;;;;8.73;8.23;;;18.90;35.90;;;;;;4989279;28;20594;-77
2023/09/04 03:42:04;;;;;;;8.80;8.40;;;18.90;36.00;;;;;;4989579;28;20256;-77
2023/09/04 03:44:30;;;;;;;9.10;8.60;;;18.90;36.00;;;;;;4992728;28;20989;-78
2023/09/04 03:46:55;;;;;;;8.13;7.73;;;18.90;36.00;;;;;;4972520;28;20457;-76
2023/09/04 03:49:21;;;;;;;9.27;8.63;;;18.90;36.10;;;;;;4992472;28;20189;-76
2023/09/04 03:51:46;;;;;;;7.70;7.40;;;18.90;36.00;;;;;;4990781;28;20269;-77
2023/09/04 03:54:12;;;;;;;8.87;8.40;;;18.90;36.00;;;;;;4988718;28;20198;-75
2023/09/04 03:56:37;;;;;;;8.90;8.40;;;18.90;35.90;;;;;;4974458;28;20652;-77
2023/09/04 03:59:04;;;;;;;7.53;7.13;;;18.80;36.00;;;;;;4972494;28;20210;-76
2023/09/04 04:01:31;;;;;;;9.10;8.50;;;18.80;35.70;;;;;;4975480;28;20166;-76
2023/09/04 04:03:57;;;;;;;9.30;8.90;;;18.80;36.00;;;;;;4973703;28;20410;-76
2023/09/04 04:06:23;;;;;;;9.27;8.77;;;18.80;35.90;;;;;;4993563;28;20424;-77
2023/09/04 04:08:54;;;;;;;9.20;8.80;;;18.80;35.90;;;;;;4987453;28;20696;-76
2023/09/04 04:11:20;;;;;;;9.77;9.23;;;18.80;35.80;;;;;;4993315;28;20174;-77
2023/09/04 04:13:46;;;;;;;9.57;9.07;;;18.80;35.90;;;;;;4989161;28;20414;-76
2023/09/04 04:16:12;;;;;;;9.37;8.77;;;18.80;35.90;;;;;;4993648;28;20186;-77
2023/09/04 04:18:37;;;;;;;8.80;8.40;;;18.70;35.90;;;;;;4991028;28;20456;-76
2023/09/04 04:21:04;;;;;;;9.10;8.70;;;18.70;36.00;;;;;;4988923;28;20240;-76
2023/09/04 04:23:30;;;;;;;8.80;8.40;;;18.70;36.00;;;;;;4973800;28;20195;-76
2023/09/04 04:25:55;;;;;;;8.67;8.27;;;18.70;35.80;;;;;;4971019;28;20942;-77
2023/09/04 04:28:22;;;;;;;9.43;9.03;;;18.70;36.00;;;;;;4987198;28;20229;-77
2023/09/04 04:30:47;;;;;;;9.13;8.73;;;18.70;36.00;;;;;;4989196;28;20178;-77
2023/09/04 04:33:13;;;;;;;9.57;8.90;;;18.70;36.00;;;;;;4989110;28;20911;-77
2023/09/04 04:35:39;;;;;;;9.53;8.93;;;18.70;35.60;;;;;;4990554;28;20190;-77
2023/09/04 04:38:06;;;;;;;9.73;9.13;;;18.70;36.50;;;;;;4993266;28;20206;-76
2023/09/04 04:40:32;;;;;;;9.07;8.67;;;18.70;35.90;;;;;;4973839;28;20430;-78
2023/09/04 04:42:58;;;;;;;9.43;9.03;;;18.70;36.00;;;;;;4994665;28;20417;-77
2023/09/04 04:45:23;;;;;;;9.43;9.07;;;18.70;35.90;;;;;;5002898;28;20428;-77
2023/09/04 04:47:49;;;;;;;10.07;9.57;;;18.70;35.90;;;;;;4990753;28;20206;-77
2023/09/04 04:50:15;;;;;;;10.67;10.07;;;18.70;35.90;;;;;;4985841;28;20183;-77
2023/09/04 04:52:40;;;;;;;9.63;9.13;;;18.70;36.00;;;;;;4975414;28;20550;-77
2023/09/04 04:55:07;;;;;;;10.20;9.70;;;18.70;36.00;;;;;;4994745;28;20498;-77
2023/09/04 04:57:36;;;;;;;11.03;10.10;;;18.60;36.10;;;;;;4973501;28;20232;-79
2023/09/04 05:00:06;;;;;;;11.23;10.63;;;18.70;36.00;;;;;;4996545;28;20472;-78
2023/09/04 05:02:32;;;;;;;9.97;9.53;;;18.60;36.10;;;;;;4993974;28;20428;-78
2023/09/04 05:04:58;;;;;;;10.30;9.80;;;18.60;36.50;;;;;;4970271;28;20422;-77
2023/09/04 05:07:24;;;;;;;10.50;10.00;;;18.50;36.20;;;;;;4991480;28;20519;-78
2023/09/04 05:09:56;;;;;;;11.40;10.30;;;18.40;36.60;;;;;;4987009;28;20178;-78
2023/09/04 05:12:23;;;;;;;10.90;10.30;;;18.20;38.00;;;;;;4988509;28;20191;-78
2023/09/04 05:14:48;;;;;;;10.37;9.77;;;18.00;38.50;;;;;;4983227;28;20406;-78
2023/09/04 05:17:14;;;;;;;10.90;10.03;;;18.10;38.70;;;;;;4973097;28;20437;-78
2023/09/04 05:19:39;;;;;;;11.17;10.43;;;18.10;38.70;;;;;;4992580;28;20189;-78
2023/09/04 05:22:05;;;;;;;9.43;8.93;;;18.20;38.50;;;;;;4990969;28;20633;-78
2023/09/04 05:24:30;;;;;;;10.77;10.17;;;18.30;38.30;;;;;;4992630;28;20259;-77
2023/09/04 05:26:56;;;;;;;11.10;10.60;;;18.30;37.80;;;;;;4983539;28;20205;-77
2023/09/04 05:29:22;;;;;;;11.33;10.83;;;18.40;37.90;;;;;;4975266;28;20182;-77
2023/09/04 05:31:51;;;;;;;9.97;9.57;;;18.50;37.60;;;;;;4991330;28;20539;-77
2023/09/04 05:34:17;;;;;;;10.10;9.37;;;18.50;37.50;;;;;;4987308;28;20472;-76
2023/09/04 05:36:43;;;;;;;11.13;10.53;;;18.50;37.40;;;;;;4992545;28;20452;-76
2023/09/04 05:39:09;;;;;;;10.83;10.23;;;18.50;37.30;;;;;;4986240;28;20410;-77
2023/09/04 05:41:38;;;;;;;10.33;9.83;;;18.40;37.40;;;;;;4983736;28;20178;-77
2023/09/04 05:44:04;;;;;;;10.40;9.80;;;18.40;37.40;;;;;;4974038;28;20927;-77
2023/09/04 05:46:31;;;;;;;11.67;11.10;;;18.40;37.50;;;;;;4971690;28;20474;-77
2023/09/04 05:48:57;;;;;;;10.50;9.90;;;18.50;37.50;;;;;;4990929;28;20284;-78
2023/09/04 05:51:22;;;;;;;10.70;10.20;;;18.50;37.30;;;;;;4991098;28;20890;-76
2023/09/04 05:53:48;;;;;;;10.50;10.00;;;18.50;37.40;;;;;;4989012;28;20501;-77
2023/09/04 05:56:14;;;;;;;10.10;9.57;;;18.60;37.40;;;;;;4990414;28;20325;-79
2023/09/04 05:58:51;;;;;;;10.53;10.03;;;18.60;37.20;;;;;;4990293;28;20217;-77
2023/09/04 06:01:18;;;;;;;11.00;10.30;;;18.40;37.40;;;;;;4989980;28;20949;-77
2023/09/04 06:03:45;;;;;;;10.73;10.13;;;18.30;38.10;;;;;;4990513;28;20518;-76
2023/09/04 06:06:12;;;;;;;10.00;9.47;;;18.20;38.10;;;;;;4985754;28;20437;-77
2023/09/04 06:08:38;;;;;;;11.00;10.40;;;18.20;38.70;;;;;;4983633;28;20491;-76
2023/09/04 06:11:04;;;;;;;11.17;10.47;;;18.30;38.80;;;;;;4988453;28;20422;-77
2023/09/04 06:13:30;;;;;;;11.37;10.67;;;18.40;38.30;;;;;;4972830;28;20198;-76
2023/09/04 06:15:56;;;;;;;11.70;11.00;;;18.40;37.80;;;;;;4987872;28;20461;-77
2023/09/04 06:18:23;;;;;;;10.70;9.90;;;18.50;37.30;;;;;;4991903;28;20488;-78
2023/09/04 06:20:50;;;;;;;11.13;10.47;;;18.60;37.10;;;;;;4989628;28;20245;-75
2023/09/04 06:23:15;;;;;;;10.80;10.20;;;18.60;37.20;;;;;;4991691;28;20409;-76
2023/09/04 06:25:43;;;;;;;11.87;10.93;;;18.70;37.00;;;;;;4972097;28;20758;-77
2023/09/04 06:28:10;;;;;;;11.30;10.50;;;18.70;36.60;;;;;;4992595;28;20614;-78
2023/09/04 06:30:37;;;;;;;11.80;11.10;;;18.70;36.40;;;;;;4971303;28;20449;-77
2023/09/04 06:33:03;;;;;;;11.77;10.73;;;18.70;35.50;;;;;;4993053;28;20421;-76
2023/09/04 06:35:29;;;;;;;11.97;11.07;;;18.80;35.40;;;;;;4989546;28;20405;-77
2023/09/04 06:37:55;;;;;;;11.87;11.23;;;18.70;35.20;;;;;;4990884;28;20441;-77
2023/09/04 06:40:20;;;;;;;11.17;10.67;;;18.80;35.20;;;;;;4995014;28;20193;-77
2023/09/04 06:42:46;;;;;;;12.27;11.47;;;18.80;34.60;;;;;;4987441;28;20425;-78
2023/09/04 06:45:12;;;;;;;12.50;11.60;;;18.80;34.30;;;;;;4976203;28;20782;-77
2023/09/04 06:47:38;;;;;;;12.47;11.57;;;18.70;34.60;;;;;;4990708;28;20687;-77
2023/09/04 06:50:05;;;;;;;13.30;12.50;;;18.70;34.60;;;;;;4986284;28;20178;-77
2023/09/04 06:52:31;;;;;;;11.17;10.63;;;18.70;34.70;;;;;;4994681;28;20453;-78
2023/09/04 06:54:56;;;;;;;11.80;11.10;;;18.80;35.30;;;;;;4991365;28;20450;-77
2023/09/04 06:57:22;;;;;;;12.60;11.90;;;18.80;34.70;;;;;;4995998;28;20210;-76
2023/09/04 06:59:47;;;;;;;12.60;11.90;;;18.90;34.20;;;;;;4993140;28;20189;-77
2023/09/04 07:02:13;;;;;;;11.93;11.13;;;19.00;34.00;;;;;;4985448;28;20602;-78
2023/09/04 07:04:38;;;;;;;12.70;11.50;;;19.00;33.20;;;;;;4989654;28;20212;-77
2023/09/04 07:07:04;;;;;;;12.23;11.53;;;19.10;33.50;;;;;;4996227;28;20259;-77
2023/09/04 07:09:29;;;;;;;11.90;11.00;;;19.10;33.60;;;;;;4973892;28;20672;-79
2023/09/04 07:11:55;;;;;;;13.40;12.27;;;19.10;32.40;;;;;;4971555;28;20193;-77
2023/09/04 07:14:20;;;;;;;12.27;11.67;;;19.10;33.10;;;;;;4995992;28;20186;-78
2023/09/04 07:16:46;;;;;;;13.17;12.50;;;19.10;32.80;;;;;;4997382;28;20213;-77
2023/09/04 07:19:12;;;;;;;12.70;11.93;;;19.20;32.70;;;;;;4978708;28;20181;-77
2023/09/04 07:21:40;;;;;;;12.87;12.13;;;19.20;32.60;;;;;;4996608;28;20181;-78
2023/09/04 07:24:06;;;;;;;11.53;10.90;;;19.20;32.10;;;;;;4996297;28;20178;-77
2023/09/04 07:26:31;;;;;;;13.00;12.10;;;19.30;31.60;;;;;;4995772;28;20748;-77
2023/09/04 07:28:57;;;;;;;13.37;12.47;;;19.40;32.00;;;;;;4994939;28;20452;-77
2023/09/04 07:31:22;;;;;;;13.47;12.67;;;19.40;31.70;;;;;;5000676;28;20607;-77
2023/09/04 07:33:49;;;;;;;12.77;12.07;;;19.40;30.50;;;;;;5000585;28;20253;-78
2023/09/04 07:36:15;;;;;;;15.17;14.17;;;19.40;30.50;;;;;;4974582;28;20177;-77
2023/09/04 07:38:42;;;;;;;14.47;13.53;;;19.40;30.40;;;;;;4986291;28;20440;-77
2023/09/04 07:41:08;;;;;;;12.97;12.17;;;19.50;30.10;;;;;;4994482;28;20932;-77
2023/09/04 07:43:34;;;;;;;13.60;12.80;;;19.50;31.10;;;;;;4976437;28;20475;-78
2023/09/04 07:46:02;;;;;;;14.00;13.20;;;19.80;30.50;;;;;;4996387;28;20186;-78
2023/09/04 07:48:29;;;;;;;13.60;12.80;;;19.70;29.80;;;;;;4995136;28;20209;-78
2023/09/04 07:50:54;;;;;;;11.93;11.33;;;19.70;29.80;;;;;;4995693;28;20421;-78
2023/09/04 07:53:20;;;;;;;13.07;12.40;;;19.70;29.70;;;;;;4993451;28;20412;-78
2023/09/04 07:55:47;;;;;;;12.27;11.57;;;19.80;29.40;;;;;;4992797;28;20625;-78
2023/09/04 07:58:13;;;;;;;11.97;11.27;;;19.80;29.20;;;;;;4993290;28;20942;-78
2023/09/04 08:00:46;;;;;;;12.87;12.07;;;19.80;29.00;;;;;;4993499;28;20417;-78
2023/09/04 08:03:13;;;;;;;12.47;11.77;;;19.90;29.40;;;;;;4995020;28;20495;-79
2023/09/04 08:05:39;;;;;;;12.53;11.73;;;20.00;28.50;;;;;;4995985;28;20432;-79
2023/09/04 08:08:09;;;;;;;13.00;12.20;;;20.10;28.60;;;;;;4988304;28;21010;-78
2023/09/04 08:10:39;;;;;;;12.80;12.00;;;20.20;28.30;;;;;;4988010;28;20784;-78
2023/09/04 08:13:06;;;;;;;13.00;12.30;;;20.20;28.50;;;;;;4996957;28;20471;-78
2023/09/04 08:15:31;;;;;;;12.20;11.60;;;20.30;28.80;;;;;;4997250;28;20412;-78
2023/09/04 08:17:57;;;;;;;12.57;11.87;;;20.30;28.50;;;;;;4994004;28;20550;-80
2023/09/04 08:20:22;;;;;;;12.90;12.17;;;20.40;27.90;;;;;;4987133;28;20233;-79
2023/09/04 08:22:48;;;;;;;11.90;11.30;;;20.50;27.60;;;;;;4995586;28;20182;-79
2023/09/04 08:25:14;;;;;;;12.40;11.80;;;20.50;27.30;;;;;;4997174;28;20197;-79
2023/09/04 08:27:39;;;;;;;12.37;11.77;;;20.60;27.10;;;;;;4994324;28;20214;-79
2023/09/04 08:30:05;;;;;;;12.10;11.50;;;20.60;26.70;;;;;;4996500;28;20222;-80
2023/09/04 08:32:31;;;;;;;12.47;11.87;;;20.60;26.90;;;;;;4995960;28;20190;-78
2023/09/04 08:34:56;;;;;;;11.97;11.30;;;20.70;26.50;;;;;;4994782;28;20460;-78
2023/09/04 08:37:22;;;;;;;12.90;12.07;;;20.70;26.40;;;;;;4991980;28;20233;-78
2023/09/04 08:39:50;;;;;;;12.60;11.90;;;20.80;26.30;;;;;;4972701;28;20449;-78
2023/09/04 08:42:16;;;;;;;12.80;11.90;;;20.90;26.50;;;;;;4971497;28;20648;-78
2023/09/04 08:44:43;;;;;;;12.03;11.43;;;21.00;25.90;;;;;;4973910;28;20426;-78
2023/09/04 08:47:10;;;;;;;12.17;11.47;;;21.10;26.10;;;;;;4983497;28;20225;-80
2023/09/04 08:49:37;;;;;;;12.70;12.10;;;21.20;24.00;;;;;;4990926;28;20950;-78
2023/09/04 08:52:05;;;;;;;12.87;12.23;;;21.30;24.00;;;;;;4990063;28;20467;-79
2023/09/04 08:54:33;;;;;;;12.23;11.63;;;21.50;23.50;;;;;;4989987;28;20482;-78
2023/09/04 08:56:59;;;;;;;11.97;11.47;;;21.60;22.80;;;;;;4995616;28;20456;-79
2023/09/04 08:59:25;;;;;;;10.87;10.37;;;21.70;22.10;;;;;;4990044;28;20406;-81
2023/09/04 09:02:02;;;;;;;11.40;10.80;;;21.90;20.90;;;;;;4987588;28;20497;-77
2023/09/04 09:04:28;;;;;;;11.07;10.37;;;22.00;19.90;;;;;;4978093;28;20547;-79
2023/09/04 09:07:01;;;;;;;11.73;11.10;;;22.20;19.80;;;;;;4994407;28;20445;-78
2023/09/04 09:09:28;;;;;;;11.70;11.10;;;22.40;19.00;;;;;;4996512;28;20185;-80
2023/09/04 09:11:54;;;;;;;11.53;10.90;;;22.50;18.60;;;;;;4969956;28;20434;-79
2023/09/04 09:14:29;;;;;;;11.20;10.60;;;22.70;18.20;;;;;;4971427;28;20424;-78
2023/09/04 09:17:10;;;;;;;11.53;11.03;;;22.90;17.70;;;;;;4989226;28;20187;-78
2023/09/04 09:19:37;;;;;;;12.20;11.70;;;23.20;17.20;;;;;;4997338;28;20503;-79
2023/09/04 09:22:17;;;;;;;12.60;12.00;;;23.40;17.30;;;;;;4995700;28;20413;-79
2023/09/04 09:24:53;;;;;;;11.00;10.60;;;23.60;17.10;;;;;;5001752;28;20444;-79
2023/09/04 09:27:30;;;;;;;11.53;11.03;;;23.70;16.10;;;;;;4997722;28;20530;-80
2023/09/04 09:29:57;;;;;;;11.70;11.20;;;23.90;15.70;;;;;;4986318;28;20428;-79
2023/09/04 09:32:27;;;;;;;11.20;10.70;;;24.10;15.80;;;;;;4982923;28;20939;-80
2023/09/04 09:34:54;;;;;;;11.63;11.13;;;24.20;14.90;;;;;;4987742;28;20413;-79
2023/09/04 09:37:24;;;;;;;10.70;10.10;;;24.30;14.80;;;;;;5002028;28;20466;-79
2023/09/04 09:39:49;;;;;;;11.50;10.90;;;24.50;15.10;;;;;;4995197;28;20433;-78
2023/09/04 09:42:15;;;;;;;10.57;10.07;;;24.70;13.80;;;;;;4971248;28;20517;-79
2023/09/04 09:44:41;;;;;;;10.23;9.83;;;24.80;13.80;;;;;;5000896;28;20248;-78
2023/09/04 09:47:13;;;;;;;9.93;9.33;;;24.90;13.20;;;;;;4980963;28;20264;-79
2023/09/04 09:49:43;;;;;;;10.07;9.47;;;25.00;12.80;;;;;;4978400;28;20474;-78
2023/09/04 09:52:10;;;;;;;10.27;9.77;;;25.00;12.00;;;;;;4993399;28;20405;-79
2023/09/04 09:54:36;;;;;;;10.23;9.70;;;25.00;11.30;;;;;;4975474;28;20430;-78
2023/09/04 09:57:03;;;;;;;10.57;10.07;;;25.10;12.10;;;;;;4993611;28;20433;-78
2023/09/04 09:59:30;;;;;;;11.00;10.40;;;25.10;11.80;;;;;;5001239;28;20437;-78
2023/09/04 10:01:57;;;;;;;11.03;10.50;;;25.20;12.10;;;;;;4999606;28;20406;-79
2023/09/04 10:04:24;;;;;;;9.90;9.30;;;25.20;10.90;;;;;;5005245;28;20471;-78
2023/09/04 10:06:52;;;;;;;10.37;9.87;;;25.10;10.50;;;;;;4990234;28;20433;-80
2023/09/04 10:09:22;;;;;;;9.33;8.90;;;25.20;11.60;;;;;;4992506;28;20426;-79
2023/09/04 10:12:11;;;;;;;9.83;9.33;;;25.20;9.80;;;;;;5005023;28;20440;-80
2023/09/04 10:14:41;;;;;;;10.13;9.43;;;25.30;10.30;;;;;;4999543;28;20425;-79
2023/09/04 10:17:17;;;;;;;10.10;9.67;;;25.30;10.50;;;;;;4995266;28;20511;-78
2023/09/04 10:19:46;;;;;;;10.00;9.43;;;25.40;9.90;;;;;;4974908;28;20451;-78
2023/09/04 10:22:20;;;;;;;9.60;9.20;;;25.40;9.60;;;;;;5000371;28;20780;-78
2023/09/04 10:25:01;;;;;;;10.20;9.60;;;25.40;9.40;;;;;;4997465;28;20431;-79
2023/09/04 10:27:32;;;;;;;10.20;9.53;;;25.40;9.90;;;;;;5002083;28;20468;-79
2023/09/04 10:30:06;;;;;;;9.83;9.33;;;25.50;8.50;;;;;;4989644;28;20444;-78
2023/09/04 10:32:33;;;;;;;10.40;9.57;;;25.50;9.00;;;;;;4984564;28;20459;-80
2023/09/04 10:35:01;;;;;;;9.60;9.10;;;25.60;9.00;;;;;;4997572;28;20414;-78
2023/09/04 10:37:29;;;;;;;9.80;9.30;;;25.70;8.80;;;;;;4983108;28;20456;-80
2023/09/04 10:39:55;;;;;;;10.80;10.00;;;25.70;8.30;;;;;;4993908;28;20506;-79
2023/09/04 10:42:23;;;;;;;9.43;8.90;;;25.70;8.80;;;;;;5002471;28;20421;-79
2023/09/04 10:44:53;;;;;;;8.90;8.50;;;25.80;8.80;;;;;;5002821;28;20409;-80
2023/09/04 10:47:20;;;;;;;10.30;9.80;;;25.80;8.90;;;;;;5004260;28;20464;-80
2023/09/04 10:49:46;;;;;;;10.07;9.57;;;25.90;8.80;;;;;;5003067;28;20417;-80
2023/09/04 10:52:13;;;;;;;9.80;9.30;;;25.90;9.30;;;;;;5005282;28;20449;-79
2023/09/04 10:54:40;;;;;;;9.13;8.73;;;25.90;8.90;;;;;;4986852;28;20425;-80
2023/09/04 10:57:10;;;;;;;10.80;10.30;;;25.90;8.00;;;;;;4986779;28;20860;-79
2023/09/04 10:59:57;;;;;;;9.17;8.60;;;25.90;8.10;;;;;;5005717;28;20436;-79
2023/09/04 11:02:32;;;;;;;9.90;9.40;;;26.00;8.50;;;;;;5001878;28;20428;-79
2023/09/04 11:04:59;;;;;;;9.50;8.90;;;26.10;6.70;;;;;;4992121;28;20420;-78
2023/09/04 11:07:26;;;;;;;10.10;9.33;;;26.10;6.80;;;;;;5002614;28;20480;-79
2023/09/04 11:09:53;;;;;;;9.80;9.30;;;26.10;7.50;;;;;;4994450;28;20414;-80
2023/09/04 11:12:20;;;;;;;9.40;8.90;;;26.10;8.00;;;;;;4982641;28;20464;-79
2023/09/04 11:14:47;;;;;;;9.43;8.93;;;26.10;7.90;;;;;;5016279;28;20421;-80
2023/09/04 11:17:15;;;;;;;9.43;9.00;;;26.10;8.10;;;;;;5003786;28;20456;-80
2023/09/04 11:19:41;;;;;;;10.20;9.80;;;26.10;8.10;;;;;;5010528;28;20424;-79
2023/09/04 11:22:15;;;;;;;9.93;9.33;;;26.00;7.90;;;;;;5018091;28;20401;-80
2023/09/04 11:24:41;;;;;;;9.43;8.93;;;26.00;6.40;;;;;;4998172;28;20183;-79
2023/09/04 11:27:06;;;;;;;9.57;9.13;;;26.10;5.30;;;;;;4988879;28;20503;-79
2023/09/04 11:29:33;;;;;;;9.13;8.73;;;26.10;4.40;;;;;;4987344;28;20169;-80
2023/09/04 11:31:58;;;;;;;9.50;9.10;;;26.20;3.60;;;;;;4987264;28;20171;-80
2023/09/04 11:34:25;;;;;;;9.20;8.80;;;26.20;4.40;;;;;;5008393;28;20489;-80
2023/09/04 11:36:51;;;;;;;9.40;9.00;;;26.20;3.60;;;;;;5006839;28;20257;-80
2023/09/04 11:39:16;;;;;;;9.90;9.40;;;26.30;4.10;;;;;;5001142;28;20989;-80
2023/09/04 11:41:42;;;;;;;9.80;9.40;;;26.40;4.30;;;;;;4994801;28;20175;-79
2023/09/04 11:44:07;;;;;;;9.70;9.20;;;26.50;4.60;;;;;;4999768;28;20193;-80
2023/09/04 11:46:34;;;;;;;9.50;8.83;;;26.50;4.20;;;;;;4993599;28;20238;-80
2023/09/04 11:49:03;;;;;;;9.30;8.80;;;26.50;4.40;;;;;;5005140;28;20208;-80
2023/09/04 11:51:30;;;;;;;19.07;9.37;;;26.70;4.20;;;;;;5008007;28;20406;-80
2023/09/04 11:53:56;;;;;;;9.80;9.10;;;26.70;3.80;;;;;;4983161;28;20413;-79
2023/09/04 11:56:21;;;;;;;9.40;8.90;;;26.70;4.70;;;;;;5002128;28;20432;-80
2023/09/04 11:58:47;;;;;;;9.67;9.17;;;26.60;4.70;;;;;;4982098;28;20225;-80
2023/09/04 12:01:13;;;;;;;9.67;9.07;;;26.60;3.90;;;;;;5001691;28;20170;-80
2023/09/04 12:03:38;;;;;;;9.60;9.10;;;26.50;4.70;;;;;;5007077;28;20198;-80
2023/09/04 12:06:04;;;;;;;9.00;8.60;;;26.60;4.60;;;;;;4996798;28;20178;-79
2023/09/04 12:08:30;;;;;;;9.60;9.10;;;26.60;3.80;;;;;;5002753;28;20213;-80
2023/09/04 12:10:56;;;;;;;10.57;10.07;;;26.60;3.70;;;;;;4997728;28;20254;-80
2023/09/04 12:13:23;;;;;;;9.87;9.47;;;26.60;4.90;;;;;;5000737;28;20285;-80
2023/09/04 12:15:48;;;;;;;10.40;9.90;;;26.60;2.80;;;;;;4984247;28;20421;-81
2023/09/04 12:18:15;;;;;;;8.60;8.10;;;26.70;3.00;;;;;;4996624;28;20445;-79
2023/09/04 12:20:43;;;;;;;9.37;8.30;;;26.70;2.30;;;;;;4986734;28;20236;-80
2023/09/04 12:23:09;;;;;;;8.20;7.80;;;26.90;3.30;;;;;;5002877;28;20414;-79
2023/09/04 12:25:37;;;;;;;8.93;8.33;;;26.90;1.80;;;;;;4998365;28;20465;-79
2023/09/04 12:28:11;;;;;;;9.97;9.47;;;27.10;1.10;;;;;;4977172;28;20213;-79
2023/09/04 12:30:40;;;;;;;9.27;8.87;;;27.00;1.30;;;;;;4993573;28;20414;-79
2023/09/04 12:33:10;;;;;;;9.17;8.77;;;27.00;1.20;;;;;;4997917;28;20460;-79
2023/09/04 12:35:35;;;;;;;9.57;9.03;;;27.00;1.60;;;;;;4982874;28;20464;-79
2023/09/04 12:38:01;;;;;;;8.43;8.03;;;27.00;1.90;;;;;;4969349;28;20446;-79
2023/09/04 12:40:26;;;;;;;8.73;8.00;;;27.20;1.00;;;;;;4980262;28;20177;-79
2023/09/04 12:42:52;;;;;;;8.63;8.13;;;27.20;1.00;;;;;;5001312;28;20182;-79
2023/09/04 12:45:18;;;;;;;8.40;8.00;;;27.20;1.00;;;;;;4978332;28;20185;-80
2023/09/04 12:47:43;;;;;;;8.87;8.37;;;27.20;1.00;;;;;;4978804;28;20202;-81
2023/09/04 12:50:09;;;;;;;8.60;8.20;;;27.10;1.00;;;;;;4976890;28;20185;-80
2023/09/04 12:52:35;;;;;;;8.30;7.90;;;27.20;1.00;;;;;;4974249;28;20648;-80
2023/09/04 12:55:00;;;;;;;8.03;7.73;;;27.10;1.00;;;;;;4970347;28;20186;-81
2023/09/04 12:57:27;;;;;;;8.73;8.27;;;27.00;1.00;;;;;;4990849;28;20230;-79
2023/09/04 12:59:53;;;;;;;8.70;8.13;;;27.00;1.00;;;;;;4996376;28;20202;-79
2023/09/04 13:02:19;;;;;;;7.33;7.03;;;26.90;1.00;;;;;;4989259;28;20418;-79
2023/09/04 13:04:44;;;;;;;9.10;8.60;;;26.90;1.00;;;;;;4970072;28;20429;-79
2023/09/04 13:07:10;;;;;;;8.67;8.07;;;26.80;1.00;;;;;;4996301;28;20216;-80
2023/09/04 13:09:37;;;;;;;8.13;7.63;;;27.00;1.00;;;;;;4994162;28;20264;-79
2023/09/04 13:12:04;;;;;;;8.93;8.33;;;27.20;1.00;;;;;;4991983;28;20193;-80
2023/09/04 13:14:30;;;;;;;9.17;8.67;;;27.20;1.00;;;;;;4994271;28;20432;-80
2023/09/04 13:16:55;;;;;;;8.50;8.00;;;27.20;1.00;;;;;;4991780;28;20437;-79
2023/09/04 13:19:21;;;;;;;8.60;8.20;;;27.20;1.00;;;;;;4977712;28;20232;-79
2023/09/04 13:21:47;;;;;;;8.77;8.37;;;27.20;1.00;;;;;;4977139;28;20253;-78
2023/09/04 13:24:12;;;;;;;9.00;8.10;;;27.10;1.00;;;;;;4980305;28;20552;-78
2023/09/04 13:26:38;;;;;;;8.67;8.27;;;27.10;1.00;;;;;;4972874;28;20282;-80
2023/09/04 13:29:03;;;;;;;7.33;7.00;;;27.20;1.00;;;;;;4989428;28;20233;-79
2023/09/04 13:31:29;;;;;;;8.80;8.30;;;27.30;1.00;;;;;;4992009;28;20545;-78
2023/09/04 13:33:54;;;;;;;8.43;7.73;;;27.30;1.00;;;;;;4988249;28;20178;-80
2023/09/04 13:36:20;;;;;;;7.87;7.47;;;27.30;1.00;;;;;;4975930;28;20181;-79
2023/09/04 13:38:45;;;;;;;8.37;7.87;;;27.30;1.00;;;;;;4969740;28;20217;-78
2023/09/04 13:41:11;;;;;;;8.43;8.03;;;27.30;1.00;;;;;;4972826;28;20178;-80
2023/09/04 13:43:36;;;;;;;8.10;7.63;;;27.40;1.00;;;;;;4987148;28;20185;-80
2023/09/04 13:46:03;;;;;;;11.30;10.50;;;27.40;1.00;;;;;;4961578;28;20667;-78
2023/09/04 13:48:31;;;;;;;10.57;9.53;;;27.30;1.00;;;;;;4981043;28;20203;-79
2023/09/04 13:50:56;;;;;;;8.83;8.40;;;27.30;1.00;;;;;;4982424;28;20496;-79
2023/09/04 13:53:22;;;;;;;8.40;8.00;;;27.20;1.00;;;;;;4964986;28;20450;-79
2023/09/04 13:55:48;;;;;;;7.60;7.20;;;27.20;1.00;;;;;;4965347;28;20178;-79
2023/09/04 13:58:13;;;;;;;8.17;7.57;;;27.10;1.00;;;;;;4982526;28;20199;-79
2023/09/04 14:00:42;;;;;;;7.40;7.07;;;27.10;1.00;;;;;;4982404;28;20512;-79
2023/09/04 14:03:10;;;;;;;8.03;7.70;;;27.10;1.00;;;;;;4973869;28;20181;-79
2023/09/04 14:05:35;;;;;;;8.17;7.70;;;27.20;1.00;;;;;;5018377;28;20416;-78
2023/09/04 14:08:01;;;;;;;9.10;8.60;;;27.20;1.00;;;;;;4998116;28;20552;-78
2023/09/04 14:10:26;;;;;;;8.47;7.97;;;27.10;1.00;;;;;;4998822;28;20167;-77
2023/09/04 14:12:52;;;;;;;7.67;7.23;;;27.10;1.00;;;;;;4982325;28;20201;-78
2023/09/04 14:15:18;;;;;;;7.57;7.17;;;27.20;1.00;;;;;;4995690;28;20624;-80
2023/09/04 14:17:43;;;;;;;8.10;7.70;;;27.30;1.00;;;;;;4997175;28;20225;-80
2023/09/04 14:20:10;;;;;;;7.53;7.20;;;27.40;1.00;;;;;;4994059;28;20617;-80
2023/09/04 14:22:35;;;;;;;6.60;6.20;;;27.40;1.00;;;;;;4999255;28;20265;-80
2023/09/04 14:25:01;;;;;;;7.37;6.97;;;27.40;1.00;;;;;;5000180;28;20488;-79
2023/09/04 14:27:26;;;;;;;6.63;6.23;;;27.30;1.00;;;;;;5000434;28;20228;-80
2023/09/04 14:29:52;;;;;;;7.30;6.67;;;27.30;1.00;;;;;;5000362;28;20244;-80
2023/09/04 14:32:18;;;;;;;7.77;7.07;;;27.30;1.00;;;;;;5001184;28;20576;-80
2023/09/04 14:34:43;;;;;;;7.30;6.90;;;27.30;1.00;;;;;;4999501;28;20413;-79
2023/09/04 14:37:09;;;;;;;7.20;6.80;;;27.30;1.00;;;;;;5000646;28;20197;-79
2023/09/04 14:39:34;;;;;;;7.27;6.87;;;27.10;1.00;;;;;;4996905;28;20226;-79
2023/09/04 14:42:00;;;;;;;6.70;6.30;;;27.00;1.00;;;;;;4985818;28;20647;-79
2023/09/04 14:44:25;;;;;;;6.77;6.47;;;27.00;1.00;;;;;;4980206;28;20183;-79
2023/09/04 14:46:51;;;;;;;6.60;6.30;;;27.10;1.00;;;;;;4980825;28;20240;-78
2023/09/04 14:49:16;;;;;;;6.90;6.23;;;27.10;1.00;;;;;;4999904;28;20206;-78
2023/09/04 14:51:42;;;;;;;7.13;6.63;;;27.10;1.00;;;;;;4999855;28;20174;-78
2023/09/04 14:54:07;;;;;;;6.87;6.37;;;27.10;1.00;;;;;;4982518;28;20173;-79
2023/09/04 14:56:33;;;;;;;6.80;6.40;;;27.20;1.00;;;;;;4999707;28;20236;-79
2023/09/04 14:58:59;;;;;;;6.93;6.33;;;27.30;1.00;;;;;;4998478;28;20188;-80
2023/09/04 15:01:24;;;;;;;7.00;6.60;;;27.30;1.00;;;;;;4978555;28;20720;-79
2023/09/04 15:03:51;;;;;;;7.33;6.60;;;27.20;1.00;;;;;;4978973;28;20182;-80
2023/09/04 15:06:17;;;;;;;6.97;6.47;;;27.10;1.00;;;;;;4978734;28;20229;-79
2023/09/04 15:08:42;;;;;;;6.20;5.80;;;27.00;1.00;;;;;;4978433;28;20872;-79
2023/09/04 16:08:05;;;;;;;7.70;7.23;;;26.50;1.00;;;;;;5929998;23;20643;-76
2023/09/04 16:10:31;;;;;;;7.43;7.03;;;26.50;1.00;;;;;;4985094;28;20456;-76
2023/09/04 16:12:56;;;;;;;7.40;7.00;;;26.40;1.10;;;;;;4985706;28;20186;-76
2023/09/04 16:15:23;;;;;;;8.27;7.77;;;26.40;1.50;;;;;;4994119;28;20189;-76
2023/09/04 16:17:50;;;;;;;7.37;7.03;;;26.30;2.30;;;;;;4975442;28;20182;-75
2023/09/04 16:20:16;;;;;;;7.30;6.90;;;26.20;2.60;;;;;;4995129;28;20503;-76
2023/09/04 16:22:41;;;;;;;7.47;7.07;;;26.20;2.60;;;;;;4969986;28;20426;-75
2023/09/04 16:25:07;;;;;;;7.17;6.77;;;26.10;2.30;;;;;;4984135;28;20178;-75
2023/09/04 16:27:33;;;;;;;7.87;7.40;;;26.10;1.90;;;;;;4987475;28;20225;-74
2023/09/04 16:29:58;;;;;;;7.70;7.20;;;26.10;1.80;;;;;;4993641;28;20441;-76
2023/09/04 16:32:24;;;;;;;7.30;6.70;;;26.20;2.20;;;;;;4986957;28;20218;-76
2023/09/04 16:34:49;;;;;;;7.40;6.90;;;26.10;2.90;;;;;;4971508;28;20178;-76
2023/09/04 16:37:19;;;;;;;7.63;7.30;;;26.10;2.90;;;;;;4991226;28;20182;-74
2023/09/04 16:39:46;;;;;;;6.80;6.50;;;26.00;3.50;;;;;;4994625;28;20197;-76
2023/09/04 16:42:12;;;;;;;7.20;6.70;;;25.90;3.70;;;;;;4990741;28;20412;-76
2023/09/04 16:44:37;;;;;;;6.90;6.50;;;25.90;3.20;;;;;;4991304;28;20796;-75
2023/09/04 16:47:03;;;;;;;6.80;6.40;;;25.90;3.40;;;;;;4993914;28;20497;-76
2023/09/04 16:49:29;;;;;;;7.00;6.53;;;25.90;3.80;;;;;;4991515;28;20623;-78